createdAt,value
2017-12-21T00:00:23.362Z,29.55
2017-12-21T00:01:31.970Z,29.55
2017-12-21T00:02:40.578Z,29.93
2017-12-21T00:03:49.181Z,30.22
2017-12-21T00:04:57.785Z,30.22
2017-12-21T00:06:06.634Z,30.51
2017-12-21T00:07:15.257Z,30.6
2017-12-21T00:08:23.858Z,30.69
2017-12-21T00:09:32.456Z,30.41
2017-12-21T00:10:41.076Z,30.6
2017-12-21T00:11:49.944Z,30.69
2017-12-21T00:12:58.795Z,30.98
2017-12-21T00:14:07.401Z,30.98
2017-12-21T00:15:16.013Z,30.79
2017-12-21T00:16:24.609Z,31.07
2017-12-21T00:17:33.212Z,31.36
2017-12-21T00:18:41.814Z,31.84
2017-12-21T00:19:50.421Z,31.64
2017-12-21T00:20:59.033Z,31.93
2017-12-21T00:22:07.627Z,31.74
2017-12-21T00:23:16.493Z,31.84
2017-12-21T00:24:25.104Z,31.74
2017-12-21T00:25:33.698Z,31.84
2017-12-21T00:26:42.302Z,31.74
2017-12-21T00:27:50.914Z,32.03
2017-12-21T00:28:59.514Z,32.21
2017-12-21T00:30:08.111Z,32.12
2017-12-21T00:31:16.720Z,32.12
2017-12-21T00:32:25.321Z,31.74
2017-12-21T00:33:33.935Z,31.64
2017-12-21T00:34:42.526Z,31.55
2017-12-21T00:35:51.127Z,32.21
2017-12-21T00:36:59.743Z,32.31
2017-12-21T00:38:08.338Z,32.31
2017-12-21T00:39:16.936Z,32.21
2017-12-21T00:40:25.549Z,32.4
2017-12-21T00:41:34.151Z,31.93
2017-12-21T00:42:42.746Z,31.84
2017-12-21T00:43:51.359Z,31.55
2017-12-21T00:44:59.963Z,31.74
2017-12-21T00:46:08.559Z,31.55
2017-12-21T00:47:17.166Z,31.74
2017-12-21T00:48:25.763Z,31.64
2017-12-21T00:49:34.380Z,31.74
2017-12-21T00:50:42.980Z,31.84
2017-12-21T00:51:51.836Z,31.47
2017-12-21T00:53:00.449Z,31.55
2017-12-21T00:54:09.054Z,31.36
2017-12-21T00:55:17.649Z,31.85
2017-12-21T00:56:26.261Z,31.84
2017-12-21T00:57:34.872Z,31.76
2017-12-21T00:58:43.465Z,32.03
2017-12-21T00:59:52.067Z,32.32
2017-12-21T01:01:00.681Z,32.31
2017-12-21T01:02:09.276Z,32.23
2017-12-21T01:03:17.882Z,32.21
2017-12-21T01:04:26.497Z,32.03
2017-12-21T01:05:35.095Z,31.55
2017-12-21T01:06:43.695Z,31.55
2017-12-21T01:07:52.573Z,31.45
2017-12-21T01:09:01.172Z,30.8
2017-12-21T01:10:09.765Z,30.9
2017-12-21T01:11:18.381Z,30.8
2017-12-21T01:12:26.986Z,30.71
2017-12-21T01:13:35.578Z,30.99
2017-12-21T01:14:44.190Z,31.07
2017-12-21T01:15:52.801Z,30.8
2017-12-21T01:17:01.406Z,30.9
2017-12-21T01:18:10.007Z,30.88
2017-12-21T01:19:18.598Z,30.98
2017-12-21T01:20:27.477Z,30.9
2017-12-21T01:21:36.082Z,30.9
2017-12-21T01:22:44.676Z,30.9
2017-12-21T01:23:53.286Z,30.9
2017-12-21T01:25:01.900Z,30.9
2017-12-21T01:26:10.491Z,30.8
2017-12-21T01:27:19.099Z,31.45
2017-12-21T01:28:27.714Z,31.36
2017-12-21T01:29:36.306Z,31.45
2017-12-21T01:30:45.168Z,31.45
2017-12-21T01:31:53.769Z,30.8
2017-12-21T01:33:02.380Z,30.9
2017-12-21T01:34:10.995Z,30.99
2017-12-21T01:35:19.588Z,30.71
2017-12-21T01:36:28.192Z,30.62
2017-12-21T01:37:36.801Z,30.33
2017-12-21T01:38:45.395Z,30.43
2017-12-21T01:39:54.000Z,30.23
2017-12-21T01:41:02.615Z,30.33
2017-12-21T01:42:11.210Z,30.52
2017-12-21T01:43:19.804Z,30.69
2017-12-21T01:44:28.419Z,30.62
2017-12-21T01:45:37.019Z,30.62
2017-12-21T01:46:45.633Z,30.71
2017-12-21T01:47:54.223Z,30.52
2017-12-21T01:49:02.824Z,30.6
2017-12-21T01:50:11.439Z,30.62
2017-12-21T01:51:20.038Z,30.9
2017-12-21T01:52:28.636Z,30.8
2017-12-21T01:53:37.251Z,30.8
2017-12-21T01:54:45.851Z,30.8
2017-12-21T01:55:54.442Z,30.71
2017-12-21T01:57:03.060Z,30.71
2017-12-21T01:58:11.665Z,30.71
2017-12-21T01:59:20.519Z,30.71
2017-12-21T02:00:29.181Z,30.62
2017-12-21T02:01:37.729Z,31.55
2017-12-21T02:02:46.345Z,31.56
2017-12-21T02:03:54.948Z,31.66
2017-12-21T02:05:03.539Z,31.76
2017-12-21T02:06:12.154Z,32.04
2017-12-21T02:07:20.762Z,32.14
2017-12-21T02:08:29.357Z,32.32
2017-12-21T02:09:37.964Z,32.8
2017-12-21T02:10:46.570Z,33.18
2017-12-21T02:11:55.165Z,33.37
2017-12-21T02:13:03.771Z,33.37
2017-12-21T02:14:12.390Z,33.28
2017-12-21T02:15:20.985Z,33.56
2017-12-21T02:16:29.592Z,32.8
2017-12-21T02:17:38.184Z,32.8
2017-12-21T02:18:46.799Z,32.32
2017-12-21T02:19:55.402Z,32.32
2017-12-21T02:21:03.992Z,32.32
2017-12-21T02:22:12.598Z,32.8
2017-12-21T02:23:21.211Z,33.37
2017-12-21T02:24:29.813Z,32.61
2017-12-21T02:25:38.410Z,32.42
2017-12-21T02:26:47.023Z,32.32
2017-12-21T02:27:55.620Z,32.23
2017-12-21T02:29:04.215Z,32.61
2017-12-21T02:30:12.821Z,32.32
2017-12-21T02:31:21.427Z,32.23
2017-12-21T02:32:30.041Z,32.14
2017-12-21T02:33:38.641Z,32.23
2017-12-21T02:34:47.236Z,32.23
2017-12-21T02:35:55.854Z,32.61
2017-12-21T02:37:04.450Z,32.23
2017-12-21T02:38:13.048Z,32.51
2017-12-21T02:39:21.662Z,32.51
2017-12-21T02:40:30.266Z,32.51
2017-12-21T02:41:38.857Z,32.7
2017-12-21T02:42:47.473Z,32.7
2017-12-21T02:43:56.081Z,32.42
2017-12-21T02:45:04.690Z,32.51
2017-12-21T02:46:13.289Z,32.7
2017-12-21T02:47:21.886Z,32.99
2017-12-21T02:48:30.778Z,32.99
2017-12-21T02:49:39.377Z,33.28
2017-12-21T02:50:47.968Z,32.7
2017-12-21T02:51:56.583Z,32.61
2017-12-21T02:53:05.191Z,32.99
2017-12-21T02:54:14.053Z,33.17
2017-12-21T02:55:22.662Z,32.51
2017-12-21T02:56:31.270Z,32.61
2017-12-21T02:57:39.861Z,32.32
2017-12-21T02:58:48.727Z,32.8
2017-12-21T02:59:57.338Z,32.32
2017-12-21T03:01:05.937Z,32.23
2017-12-21T03:02:14.542Z,32.32
2017-12-21T03:03:23.416Z,32.32
2017-12-21T03:04:32.011Z,32.23
2017-12-21T03:05:40.608Z,31.66
2017-12-21T03:06:49.226Z,31.85
2017-12-21T03:07:57.825Z,31.66
2017-12-21T03:09:06.422Z,31.76
2017-12-21T03:10:15.035Z,31.76
2017-12-21T03:11:23.642Z,31.76
2017-12-21T03:12:32.230Z,31.47
2017-12-21T03:13:40.840Z,31.66
2017-12-21T03:14:49.438Z,31.28
2017-12-21T03:15:58.051Z,31.76
2017-12-21T03:17:06.650Z,31.85
2017-12-21T03:18:15.244Z,31.66
2017-12-21T03:19:23.874Z,31.66
2017-12-21T03:20:32.462Z,32.32
2017-12-21T03:21:41.055Z,32.61
2017-12-21T03:22:49.666Z,32.32
2017-12-21T03:23:58.274Z,32.99
2017-12-21T03:25:06.868Z,33.37
2017-12-21T03:26:15.473Z,33.28
2017-12-21T03:27:24.094Z,33.18
2017-12-21T03:28:32.949Z,33.18
2017-12-21T03:29:41.554Z,33.09
2017-12-21T03:30:50.415Z,33.47
2017-12-21T03:31:59.025Z,33.47
2017-12-21T03:33:07.634Z,33.18
2017-12-21T03:34:16.228Z,33.09
2017-12-21T03:35:24.836Z,33.18
2017-12-21T03:36:33.443Z,32.8
2017-12-21T03:37:42.036Z,33.28
2017-12-21T03:38:50.639Z,32.9
2017-12-21T03:39:59.253Z,32.9
2017-12-21T03:41:07.850Z,33.28
2017-12-21T03:42:16.447Z,32.99
2017-12-21T03:43:25.056Z,33.28
2017-12-21T03:44:33.662Z,33.28
2017-12-21T03:45:42.531Z,33.09
2017-12-21T03:46:51.129Z,32.99
2017-12-21T03:47:59.730Z,32.99
2017-12-21T03:49:08.346Z,33.18
2017-12-21T03:50:16.946Z,33.65
2017-12-21T03:51:25.542Z,33.65
2017-12-21T03:52:34.414Z,33.65
2017-12-21T03:53:43.016Z,33.56
2017-12-21T03:54:51.865Z,33.56
2017-12-21T03:56:00.770Z,33.37
2017-12-21T03:57:09.344Z,33.37
2017-12-21T03:58:17.948Z,33.56
2017-12-21T03:59:26.544Z,33.28
2017-12-21T04:00:35.144Z,33.47
2017-12-21T04:01:43.759Z,33.28
2017-12-21T04:02:52.361Z,33.09
2017-12-21T04:04:00.950Z,33.56
2017-12-21T04:05:09.566Z,33.56
2017-12-21T04:06:18.172Z,33.75
2017-12-21T04:07:26.766Z,33.56
2017-12-21T04:08:35.381Z,33.47
2017-12-21T04:09:43.989Z,33.84
2017-12-21T04:10:52.578Z,33.94
2017-12-21T04:12:01.183Z,33.56
2017-12-21T04:13:09.784Z,33.65
2017-12-21T04:14:18.396Z,33.56
2017-12-21T04:15:27.000Z,33.75
2017-12-21T04:16:35.591Z,33.65
2017-12-21T04:17:44.204Z,33.56
2017-12-21T04:18:52.818Z,33.56
2017-12-21T04:20:01.407Z,33.65
2017-12-21T04:21:10.276Z,33.84
2017-12-21T04:22:18.892Z,34.13
2017-12-21T04:23:27.486Z,33.94
2017-12-21T04:24:36.346Z,33.94
2017-12-21T04:25:44.964Z,33.84
2017-12-21T04:26:53.555Z,33.56
2017-12-21T04:28:02.161Z,33.18
2017-12-21T04:29:10.756Z,33.18
2017-12-21T04:30:19.369Z,32.9
2017-12-21T04:31:27.979Z,33.09
2017-12-21T04:32:36.574Z,33.09
2017-12-21T04:33:45.429Z,32.7
2017-12-21T04:34:54.043Z,32.7
2017-12-21T04:36:02.641Z,32.23
2017-12-21T04:37:11.238Z,32.61
2017-12-21T04:38:19.852Z,32.51
2017-12-21T04:39:28.457Z,32.7
2017-12-21T04:40:37.048Z,32.32
2017-12-21T04:41:45.660Z,32.04
2017-12-21T04:42:54.265Z,31.56
2017-12-21T04:44:03.133Z,31.47
2017-12-21T04:45:11.731Z,31.76
2017-12-21T04:46:20.329Z,31.66
2017-12-21T04:47:28.945Z,31.56
2017-12-21T04:48:37.547Z,31.28
2017-12-21T04:49:46.138Z,31.47
2017-12-21T04:50:54.754Z,30.69
2017-12-21T04:52:03.360Z,31.47
2017-12-21T04:53:12.216Z,31.26
2017-12-21T04:54:21.082Z,31.56
2017-12-21T04:55:29.694Z,31.26
2017-12-21T04:56:38.289Z,30.88
2017-12-21T04:57:47.155Z,30.9
2017-12-21T04:58:56.031Z,30.98
2017-12-21T05:00:04.616Z,30.79
2017-12-21T05:01:13.216Z,30.99
2017-12-21T05:02:21.835Z,30.9
2017-12-21T05:03:30.431Z,30.88
2017-12-21T05:04:39.028Z,30.98
2017-12-21T05:05:47.639Z,30.98
2017-12-21T05:06:56.243Z,30.98
2017-12-21T05:08:04.834Z,30.88
2017-12-21T05:09:13.449Z,30.88
2017-12-21T05:10:22.051Z,30.99
2017-12-21T05:11:30.656Z,30.98
2017-12-21T05:12:39.253Z,30.79
2017-12-21T05:13:47.852Z,30.88
2017-12-21T05:14:56.465Z,30.79
2017-12-21T05:16:05.064Z,30.69
2017-12-21T05:17:13.653Z,30.71
2017-12-21T05:18:22.270Z,30.51
2017-12-21T05:19:30.874Z,30.51
2017-12-21T05:20:39.469Z,30.6
2017-12-21T05:21:48.076Z,30.69
2017-12-21T05:22:56.685Z,30.69
2017-12-21T05:24:05.279Z,30.6
2017-12-21T05:25:14.143Z,30.98
2017-12-21T05:26:23.005Z,30.79
2017-12-21T05:27:31.873Z,30.79
2017-12-21T05:28:40.471Z,30.79
2017-12-21T05:29:49.077Z,30.6
2017-12-21T05:30:57.939Z,30.98
2017-12-21T05:32:06.551Z,30.98
2017-12-21T05:33:15.140Z,30.69
2017-12-21T05:34:23.747Z,30.6
2017-12-21T05:35:32.360Z,30.69
2017-12-21T05:36:41.478Z,30.22
2017-12-21T05:37:50.079Z,30.12
2017-12-21T05:38:58.965Z,30.12
2017-12-21T05:40:07.561Z,29.46
2017-12-21T05:41:16.168Z,29.17
2017-12-21T05:42:24.768Z,29.08
2017-12-21T05:43:33.374Z,29.27
2017-12-21T05:44:41.987Z,28.98
2017-12-21T05:45:50.579Z,29.46
2017-12-21T05:46:59.181Z,28.98
2017-12-21T05:48:07.798Z,29.08
2017-12-21T05:49:16.391Z,28.79
2017-12-21T05:50:24.996Z,28.7
2017-12-21T05:51:33.601Z,28.7
2017-12-21T05:52:42.201Z,28.6
2017-12-21T05:53:50.792Z,28.98
2017-12-21T05:54:59.402Z,28.6
2017-12-21T05:56:08.006Z,28.7
2017-12-21T05:57:16.618Z,28.41
2017-12-21T05:58:25.479Z,28.22
2017-12-21T05:59:34.078Z,28.41
2017-12-21T06:00:42.690Z,28.13
2017-12-21T06:01:51.554Z,28.13
2017-12-21T06:03:00.146Z,28.13
2017-12-21T06:04:08.764Z,28.22
2017-12-21T06:05:17.369Z,28.13
2017-12-21T06:06:25.965Z,28.03
2017-12-21T06:07:34.835Z,27.94
2017-12-21T06:08:43.439Z,27.65
2017-12-21T06:09:52.042Z,27.65
2017-12-21T06:11:00.640Z,27.37
2017-12-21T06:12:09.235Z,27.37
2017-12-21T06:13:17.850Z,27.37
2017-12-21T06:14:26.454Z,27.37
2017-12-21T06:15:35.052Z,27.37
2017-12-21T06:16:43.659Z,27.18
2017-12-21T06:17:52.271Z,26.89
2017-12-21T06:19:00.859Z,26.98
2017-12-21T06:20:09.466Z,26.79
2017-12-21T06:21:18.080Z,27.08
2017-12-21T06:22:26.673Z,27.18
2017-12-21T06:23:35.538Z,27.08
2017-12-21T06:24:44.137Z,27.08
2017-12-21T06:25:52.749Z,26.79
2017-12-21T06:27:01.376Z,26.89
2017-12-21T06:28:10.443Z,26.7
2017-12-21T06:29:22.143Z,26.32
2017-12-21T06:30:32.969Z,26.13
2017-12-21T06:31:41.932Z,26.23
2017-12-21T06:32:50.710Z,26.23
2017-12-21T06:33:59.505Z,26.04
2017-12-21T06:35:08.407Z,26.04
2017-12-21T06:36:17.081Z,26.23
2017-12-21T06:37:25.740Z,26.42
2017-12-21T06:38:34.462Z,25.85
2017-12-21T06:39:43.187Z,25.94
2017-12-21T06:40:51.893Z,25.75
2017-12-21T06:42:00.619Z,25.94
2017-12-21T06:43:09.451Z,25.85
2017-12-21T06:44:18.189Z,25.85
2017-12-21T06:45:26.842Z,25.85
2017-12-21T06:46:35.546Z,25.85
2017-12-21T06:47:44.219Z,25.65
2017-12-21T06:48:52.908Z,25.65
2017-12-21T06:50:01.853Z,26.04
2017-12-21T06:51:10.555Z,26.23
2017-12-21T06:52:19.761Z,26.32
2017-12-21T06:53:28.415Z,26.23
2017-12-21T06:54:37.036Z,26.13
2017-12-21T06:55:45.757Z,26.23
2017-12-21T06:56:54.404Z,26.23
2017-12-21T06:58:03.087Z,26.04
2017-12-21T06:59:13.268Z,26.23
2017-12-21T07:00:22.557Z,26.13
2017-12-21T07:01:31.357Z,26.32
2017-12-21T07:02:40.056Z,26.51
2017-12-21T07:03:48.742Z,26.32
2017-12-21T07:04:57.364Z,26.23
2017-12-21T07:06:05.972Z,26.32
2017-12-21T07:07:14.604Z,26.23
2017-12-21T07:08:23.259Z,26.24
2017-12-21T07:09:31.871Z,26.79
2017-12-21T07:10:40.484Z,25.94
2017-12-21T07:11:49.080Z,25.94
2017-12-21T07:12:57.933Z,25.94
2017-12-21T07:14:06.545Z,26.13
2017-12-21T07:15:15.151Z,26.23
2017-12-21T07:16:23.742Z,26.13
2017-12-21T07:17:32.360Z,26.13
2017-12-21T07:18:40.965Z,26.14
2017-12-21T07:19:49.561Z,26.04
2017-12-21T07:20:58.164Z,26.53
2017-12-21T07:22:06.773Z,26.04
2017-12-21T07:23:15.375Z,25.95
2017-12-21T07:24:24.030Z,25.95
2017-12-21T07:25:32.571Z,25.95
2017-12-21T07:26:41.187Z,25.95
2017-12-21T07:27:49.792Z,25.85
2017-12-21T07:28:58.384Z,25.94
2017-12-21T07:30:06.994Z,25.85
2017-12-21T07:31:15.608Z,26.05
2017-12-21T07:32:24.199Z,26.32
2017-12-21T07:33:32.803Z,26.24
2017-12-21T07:34:41.412Z,26.04
2017-12-21T07:35:50.007Z,26.23
2017-12-21T07:36:58.610Z,26.7
2017-12-21T07:38:07.211Z,26.79
2017-12-21T07:39:15.820Z,26.79
2017-12-21T07:40:24.426Z,26.23
2017-12-21T07:41:33.023Z,26.13
2017-12-21T07:42:41.639Z,26.14
2017-12-21T07:43:50.402Z,26.13
2017-12-21T07:44:58.993Z,26.24
2017-12-21T07:46:07.867Z,26.42
2017-12-21T07:47:16.746Z,26.42
2017-12-21T07:48:25.345Z,26.04
2017-12-21T07:49:33.941Z,25.94
2017-12-21T07:50:42.553Z,25.95
2017-12-21T07:51:51.153Z,25.85
2017-12-21T07:52:59.774Z,26.04
2017-12-21T07:54:08.363Z,25.76
2017-12-21T07:55:16.964Z,25.76
2017-12-21T07:56:25.575Z,25.86
2017-12-21T07:57:34.174Z,25.85
2017-12-21T07:58:42.772Z,25.57
2017-12-21T07:59:51.387Z,25.18
2017-12-21T08:00:59.987Z,25.29
2017-12-21T08:02:08.578Z,25.2
2017-12-21T08:03:17.198Z,25.76
2017-12-21T08:04:25.803Z,26.14
2017-12-21T08:05:34.395Z,26.24
2017-12-21T08:06:43.002Z,26.05
2017-12-21T08:07:51.600Z,26.43
2017-12-21T08:09:00.216Z,26.81
2017-12-21T08:10:09.075Z,27.09
2017-12-21T08:11:17.667Z,26.81
2017-12-21T08:12:26.278Z,26.81
2017-12-21T08:13:34.886Z,27.09
2017-12-21T08:14:43.470Z,27
2017-12-21T08:15:52.081Z,27.09
2017-12-21T08:17:00.956Z,27
2017-12-21T08:18:09.549Z,26.9
2017-12-21T08:19:18.153Z,26.9
2017-12-21T08:20:26.765Z,27.28
2017-12-21T08:21:35.365Z,27.67
2017-12-21T08:22:43.972Z,27.67
2017-12-21T08:23:52.563Z,27.86
2017-12-21T08:25:01.170Z,27.86
2017-12-21T08:26:09.783Z,28.33
2017-12-21T08:27:18.894Z,28.71
2017-12-21T08:28:27.502Z,28.81
2017-12-21T08:29:36.122Z,29
2017-12-21T08:30:44.714Z,29.66
2017-12-21T08:31:53.575Z,29.75
2017-12-21T08:33:02.453Z,30.04
2017-12-21T08:34:11.309Z,29.95
2017-12-21T08:35:19.906Z,30.33
2017-12-21T08:36:28.514Z,30.62
2017-12-21T08:37:37.119Z,30.8
2017-12-21T08:38:45.736Z,31.47
2017-12-21T08:39:54.328Z,31.85
2017-12-21T08:41:02.932Z,32.04
2017-12-21T08:42:11.544Z,32.61
2017-12-21T08:43:20.142Z,32.51
2017-12-21T08:44:28.743Z,32.32
2017-12-21T08:45:37.360Z,32.42
2017-12-21T08:46:46.219Z,32.7
2017-12-21T08:47:54.810Z,32.42
2017-12-21T08:49:03.426Z,32.23
2017-12-21T08:50:12.030Z,32.61
2017-12-21T08:51:20.620Z,33.09
2017-12-21T08:52:29.243Z,32.99
2017-12-21T08:53:37.854Z,33.47
2017-12-21T08:54:46.447Z,33.65
2017-12-21T08:55:55.051Z,33.84
2017-12-21T08:57:03.663Z,34.23
2017-12-21T08:58:12.259Z,34.8
2017-12-21T08:59:20.861Z,34.99
2017-12-21T09:00:29.476Z,34.89
2017-12-21T09:01:38.074Z,35.94
2017-12-21T09:02:46.696Z,35.65
2017-12-21T09:03:55.307Z,35.46
2017-12-21T09:05:03.975Z,35.37
2017-12-21T09:06:17.241Z,35.37
2017-12-21T09:07:25.838Z,35.08
2017-12-21T09:08:34.439Z,35.27
2017-12-21T09:09:43.100Z,35.46
2017-12-21T09:10:51.721Z,36.13
2017-12-21T09:12:00.323Z,36.41
2017-12-21T09:13:08.932Z,36.41
2017-12-21T09:14:17.534Z,36.32
2017-12-21T09:15:26.130Z,36.51
2017-12-21T09:16:35.001Z,36.79
2017-12-21T09:17:43.608Z,36.79
2017-12-21T09:18:52.201Z,36.79
2017-12-21T09:20:01.076Z,36.89
2017-12-21T09:21:09.927Z,36.98
2017-12-21T09:22:18.553Z,36.7
2017-12-21T09:23:27.148Z,36.98
2017-12-21T09:24:35.742Z,36.7
2017-12-21T09:25:44.357Z,36.7
2017-12-21T09:26:53.225Z,36.72
2017-12-21T09:28:01.821Z,36.6
2017-12-21T09:29:10.430Z,36.7
2017-12-21T09:30:19.039Z,36.98
2017-12-21T09:31:27.634Z,37.08
2017-12-21T09:32:36.241Z,37.27
2017-12-21T09:33:45.117Z,36.79
2017-12-21T09:34:53.717Z,37.08
2017-12-21T09:36:02.328Z,37.18
2017-12-21T09:37:10.918Z,37.1
2017-12-21T09:38:19.527Z,36.81
2017-12-21T09:39:28.134Z,37.19
2017-12-21T09:40:36.736Z,37.1
2017-12-21T09:41:45.337Z,37.65
2017-12-21T09:42:53.949Z,37.74
2017-12-21T09:44:02.542Z,37.55
2017-12-21T09:45:11.141Z,37.67
2017-12-21T09:46:19.754Z,37.67
2017-12-21T09:47:28.351Z,37.57
2017-12-21T09:48:36.948Z,37.95
2017-12-21T09:49:45.556Z,38.05
2017-12-21T09:50:54.162Z,37.76
2017-12-21T09:52:02.774Z,37.84
2017-12-21T09:53:11.372Z,37.48
2017-12-21T09:54:19.975Z,38.12
2017-12-21T09:55:28.593Z,37.48
2017-12-21T09:56:37.189Z,37.37
2017-12-21T09:57:45.789Z,37.67
2017-12-21T09:58:54.402Z,37.67
2017-12-21T10:00:03.006Z,37.67
2017-12-21T10:01:11.598Z,37.48
2017-12-21T10:02:20.216Z,37.76
2017-12-21T10:03:28.823Z,37.29
2017-12-21T10:04:37.430Z,37.57
2017-12-21T10:05:46.024Z,37.38
2017-12-21T10:06:54.624Z,38.14
2017-12-21T10:08:03.236Z,37.57
2017-12-21T10:09:12.095Z,37.86
2017-12-21T10:10:20.691Z,37.86
2017-12-21T10:11:29.302Z,37.48
2017-12-21T10:12:37.910Z,37.38
2017-12-21T10:13:46.507Z,37.48
2017-12-21T10:14:55.115Z,38.14
2017-12-21T10:16:03.725Z,37.48
2017-12-21T10:17:12.315Z,37.95
2017-12-21T10:18:20.922Z,37.86
2017-12-21T10:19:29.524Z,38.05
2017-12-21T10:20:38.142Z,37.86
2017-12-21T10:21:47.013Z,38.24
2017-12-21T10:22:55.608Z,38.53
2017-12-21T10:24:04.217Z,39
2017-12-21T10:25:12.846Z,39.09
2017-12-21T10:26:21.447Z,39
2017-12-21T10:27:30.055Z,38.43
2017-12-21T10:28:39.217Z,37.95
2017-12-21T10:29:50.963Z,37.95
2017-12-21T10:31:04.097Z,37.95
2017-12-21T10:32:16.491Z,38.34
2017-12-21T10:33:28.837Z,38.43
2017-12-21T10:34:41.485Z,39.19
2017-12-21T10:35:53.865Z,39.19
2017-12-21T10:37:03.098Z,38.62
2017-12-21T10:38:11.711Z,38.53
2017-12-21T10:39:20.304Z,39.09
2017-12-21T10:40:28.908Z,39
2017-12-21T10:41:37.522Z,39
2017-12-21T10:42:46.464Z,39.28
2017-12-21T10:43:55.066Z,39.86
2017-12-21T10:45:03.676Z,40.14
2017-12-21T10:46:12.285Z,39.86
2017-12-21T10:47:20.879Z,40.05
2017-12-21T10:48:29.537Z,39.67
2017-12-21T10:49:38.201Z,39.38
2017-12-21T10:50:46.795Z,39.28
2017-12-21T10:51:55.404Z,39
2017-12-21T10:53:04.017Z,38.9
2017-12-21T10:54:12.608Z,39
2017-12-21T10:55:21.481Z,38.9
2017-12-21T10:56:30.092Z,38.62
2017-12-21T10:57:38.690Z,38.05
2017-12-21T10:58:47.292Z,38.05
2017-12-21T10:59:55.912Z,37.19
2017-12-21T11:01:04.509Z,36.72
2017-12-21T11:02:13.105Z,36.72
2017-12-21T11:03:21.716Z,36.91
2017-12-21T11:04:30.578Z,37.19
2017-12-21T11:05:39.194Z,36.91
2017-12-21T11:06:48.046Z,36.91
2017-12-21T11:07:56.650Z,36.43
2017-12-21T11:09:05.267Z,36.33
2017-12-21T11:10:13.863Z,35.77
2017-12-21T11:11:22.461Z,35.67
2017-12-21T11:12:31.072Z,35.86
2017-12-21T11:13:39.676Z,35.96
2017-12-21T11:14:48.271Z,35.86
2017-12-21T11:15:56.892Z,36.33
2017-12-21T11:17:05.500Z,36.15
2017-12-21T11:18:14.108Z,36.91
2017-12-21T11:19:22.970Z,37
2017-12-21T11:20:31.565Z,36.81
2017-12-21T11:21:40.181Z,36.53
2017-12-21T11:22:48.783Z,36.33
2017-12-21T11:23:57.374Z,36.62
2017-12-21T11:25:06.769Z,36.15
2017-12-21T11:26:15.487Z,36.24
2017-12-21T11:27:24.086Z,36.43
2017-12-21T11:28:32.699Z,36.24
2017-12-21T11:29:41.314Z,36.91
2017-12-21T11:30:49.908Z,36.24
2017-12-21T11:31:58.516Z,36.15
2017-12-21T11:33:07.117Z,36.43
2017-12-21T11:34:17.098Z,35.96
2017-12-21T11:35:26.105Z,35.78
2017-12-21T11:36:34.959Z,36.45
2017-12-21T11:37:43.839Z,36.07
2017-12-21T11:38:52.468Z,37.02
2017-12-21T11:40:01.060Z,37.78
2017-12-21T11:41:10.187Z,37.59
2017-12-21T11:42:18.800Z,38.53
2017-12-21T11:43:27.394Z,38.34
2017-12-21T11:44:36.002Z,37.95
2017-12-21T11:45:44.877Z,37.86
2017-12-21T11:46:53.762Z,38.07
2017-12-21T11:48:02.360Z,39.31
2017-12-21T11:49:10.974Z,38.35
2017-12-21T11:50:19.836Z,37.78
2017-12-21T11:51:28.431Z,37.69
2017-12-21T11:52:37.049Z,37.78
2017-12-21T11:53:45.659Z,39.02
2017-12-21T11:54:54.254Z,39.5
2017-12-21T11:56:02.865Z,39.31
2017-12-21T11:57:11.476Z,39.69
2017-12-21T11:58:20.071Z,40.16
2017-12-21T11:59:28.678Z,40.06
2017-12-21T12:00:37.299Z,40.26
2017-12-21T12:01:45.895Z,39.97
2017-12-21T12:02:54.502Z,39.87
2017-12-21T12:04:03.098Z,40.45
2017-12-21T12:05:11.707Z,40.73
2017-12-21T12:06:20.322Z,41.97
2017-12-21T12:07:28.922Z,42.16
2017-12-21T12:08:37.527Z,42.25
2017-12-21T12:09:46.153Z,42.35
2017-12-21T12:10:54.739Z,42.64
2017-12-21T12:12:03.345Z,42.35
2017-12-21T12:13:11.959Z,43.02
2017-12-21T12:14:20.557Z,42.83
2017-12-21T12:15:29.157Z,43.49
2017-12-21T12:16:37.768Z,43.78
2017-12-21T12:17:46.376Z,42.83
2017-12-21T12:18:55.008Z,42.25
2017-12-21T12:20:03.632Z,42.35
2017-12-21T12:21:12.303Z,41.97
2017-12-21T12:22:21.085Z,41.97
2017-12-21T12:23:29.940Z,41.78
2017-12-21T12:24:38.884Z,43.3
2017-12-21T12:25:48.083Z,42.92
2017-12-21T12:27:07.460Z,41.88
2017-12-21T12:28:16.533Z,41.3
2017-12-21T12:29:25.616Z,41.4
2017-12-21T12:30:56.736Z,40.73
2017-12-21T12:32:05.755Z,41.21
2017-12-21T12:33:14.584Z,41.88
2017-12-21T12:34:23.767Z,42.25
2017-12-21T12:35:32.716Z,42.16
2017-12-21T12:36:41.905Z,42.64
2017-12-21T12:37:51.262Z,43.4
2017-12-21T12:39:00.568Z,43.97
2017-12-21T12:40:09.468Z,44.26
2017-12-21T12:42:18.432Z,44.82
2017-12-21T12:44:08.141Z,45.4
2017-12-21T12:45:33.384Z,45.87
2017-12-21T12:46:43.246Z,45.87
2017-12-21T12:47:52.207Z,45.68
2017-12-21T12:49:01.151Z,45.78
2017-12-21T12:50:10.058Z,45.78
2017-12-21T12:51:19.247Z,45.49
2017-12-21T12:52:28.319Z,45.01
2017-12-21T12:53:37.061Z,45.49
2017-12-21T12:54:46.265Z,45.4
2017-12-21T12:55:56.082Z,45.68
2017-12-21T12:57:18.154Z,46.44
2017-12-21T12:58:26.957Z,46.83
2017-12-21T12:59:35.775Z,45.97
2017-12-21T13:00:44.591Z,46.25
2017-12-21T13:01:53.494Z,45.87
2017-12-21T13:03:02.212Z,46.92
2017-12-21T13:04:10.924Z,46.92
2017-12-21T13:05:19.663Z,47.11
2017-12-21T13:08:23.877Z,48.16
2017-12-21T13:09:32.493Z,48.06
2017-12-21T13:10:41.146Z,47.49
2017-12-21T13:14:53.005Z,47.39
2017-12-21T13:16:01.682Z,48.16
2017-12-21T13:17:10.536Z,47.68
2017-12-21T13:18:19.155Z,47.68
2017-12-21T13:19:27.775Z,47.68
2017-12-21T13:20:36.372Z,47.39
2017-12-21T13:21:45.252Z,48.06
2017-12-21T13:22:53.835Z,48.54
2017-12-21T13:24:02.451Z,48.54
2017-12-21T13:25:11.066Z,48.44
2017-12-21T13:26:19.658Z,47.49
2017-12-21T13:27:28.271Z,47.2
2017-12-21T13:28:36.883Z,47.87
2017-12-21T13:29:45.482Z,47.68
2017-12-21T13:30:54.084Z,48.35
2017-12-21T13:32:02.703Z,48.63
2017-12-21T13:33:11.303Z,47.97
2017-12-21T13:34:19.901Z,48.44
2017-12-21T13:35:28.521Z,47.97
2017-12-21T13:36:37.481Z,48.25
2017-12-21T13:37:46.100Z,48.92
2017-12-21T13:38:54.692Z,48.44
2017-12-21T13:40:03.305Z,47.97
2017-12-21T13:41:11.928Z,49.2
2017-12-21T13:42:20.522Z,49.4
2017-12-21T13:43:29.125Z,48.92
2017-12-21T13:44:37.747Z,49.2
2017-12-21T13:45:46.353Z,49.77
2017-12-21T13:46:54.952Z,49.2
2017-12-21T13:48:03.570Z,48.82
2017-12-21T13:49:12.177Z,48.92
2017-12-21T13:50:20.787Z,49.3
2017-12-21T13:51:29.391Z,49.68
2017-12-21T13:52:37.992Z,49.68
2017-12-21T13:53:46.611Z,48.73
2017-12-21T13:54:55.236Z,49.3
2017-12-21T13:56:03.834Z,49.3
2017-12-21T13:57:12.445Z,49.2
2017-12-21T13:58:21.089Z,48.44
2017-12-21T13:59:29.647Z,48.73
2017-12-21T14:00:38.260Z,48.63
2017-12-21T14:01:47.128Z,48.73
2017-12-21T14:02:55.724Z,49.4
2017-12-21T14:04:04.592Z,48.92
2017-12-21T14:05:13.189Z,49.4
2017-12-21T14:06:21.810Z,48.73
2017-12-21T14:07:30.418Z,48.35
2017-12-21T14:08:39.012Z,49.01
2017-12-21T14:09:47.621Z,49.58
2017-12-21T14:10:56.268Z,49.58
2017-12-21T14:12:05.006Z,49.68
2017-12-21T14:13:13.624Z,49.11
2017-12-21T14:14:22.249Z,49.2
2017-12-21T14:15:30.853Z,48.82
2017-12-21T14:16:39.461Z,49.3
2017-12-21T14:17:48.096Z,49.11
2017-12-21T14:18:56.696Z,49.01
2017-12-21T14:20:05.315Z,49.01
2017-12-21T14:21:13.901Z,48.82
2017-12-21T14:22:22.508Z,49.01
2017-12-21T14:23:31.122Z,49.11
2017-12-21T14:24:39.729Z,49.58
2017-12-21T14:25:48.327Z,49.87
2017-12-21T14:26:56.976Z,49.58
2017-12-21T14:28:05.615Z,49.68
2017-12-21T14:29:14.320Z,49.4
2017-12-21T14:30:22.952Z,49.58
2017-12-21T14:31:31.557Z,49.4
2017-12-21T14:32:40.154Z,49.2
2017-12-21T14:33:49.085Z,49.2
2017-12-21T14:34:57.896Z,49.96
2017-12-21T14:36:06.520Z,49.58
2017-12-21T14:37:15.113Z,49.01
2017-12-21T14:38:23.716Z,49.2
2017-12-21T14:39:32.330Z,49.2
2017-12-21T14:40:40.933Z,49.01
2017-12-21T14:41:49.527Z,48.82
2017-12-21T14:42:58.147Z,48.63
2017-12-21T14:44:06.753Z,48.73
2017-12-21T14:45:15.349Z,48.73
2017-12-21T14:46:23.960Z,48.73
2017-12-21T14:47:32.574Z,49.01
2017-12-21T14:48:41.170Z,49.2
2017-12-21T14:49:49.778Z,48.82
2017-12-21T14:50:58.397Z,49.2
2017-12-21T14:52:06.993Z,49.01
2017-12-21T14:53:15.598Z,49.11
2017-12-21T14:54:24.212Z,49.58
2017-12-21T14:55:33.125Z,49.87
2017-12-21T14:56:41.669Z,49.68